Photometre #741[NE_1.6] Arcachon AOT

File : 20221125_741.hum

25/11/2022,08:15:11,TEMP=12.0,BA=5.36,STAT.A=2.0,ExtBa=12.76
25/11/2022,08:19:53,TEMP=12.1,BA=5.36,STAT.A=2.0,ExtBa=12.69
25/11/2022,08:25:27,TEMP=12.0,BA=5.20,STAT.A=2.0,ExtBa=12.65
25/11/2022,08:32:12,TEMP=11.9,BA=5.36,STAT.A=2.0,ExtBa=12.64
25/11/2022,08:40:31,TEMP=11.7,BA=5.36,STAT.A=2.0,ExtBa=12.65
25/11/2022,08:51:00,TEMP=11.8,BA=5.32,STAT.h
25/11/2022,08:51:35,TEMP=11.8,BA=5.32,STAT.h
25/11/2022,09:06:35,TEMP=11.8,BA=5.40,STAT.h
25/11/2022,09:21:35,TEMP=11.8,BA=5.36,STAT.h
25/11/2022,09:36:35,TEMP=11.8,BA=5.48,STAT.h
25/11/2022,09:51:56,TEMP=12.4,BA=5.52,STAT.F,ExtBa=12.68
25/11/2022,10:06:54,TEMP=12.8,BA=5.64,STAT.D=2.0,ExtBa=13.14
25/11/2022,10:21:54,TEMP=12.3,BA=5.44,STAT.D=2.0,ExtBa=12.91
25/11/2022,10:36:54,TEMP=13.8,BA=5.64,STAT.D=2.0,ExtBa=13.95
25/11/2022,10:51:56,TEMP=13.8,BA=5.64,STAT.F,ExtBa=13.34
25/11/2022,11:07:14,TEMP=14.8,BA=5.40,STAT.D=2.0,ExtBa=13.31
25/11/2022,11:21:55,TEMP=15.3,BA=5.64,STAT.D=2.0,ExtBa=13.87
25/11/2022,11:36:55,TEMP=16.1,BA=5.64,STAT.D=2.0,ExtBa=13.85
25/11/2022,11:51:56,TEMP=16.3,BA=5.64,STAT.F,ExtBa=13.88
25/11/2022,12:06:55,TEMP=16.5,BA=5.44,STAT.D=2.0,ExtBa=12.93
25/11/2022,12:21:35,TEMP=16.1,BA=5.52,STAT.h
25/11/2022,12:36:35,TEMP=16.1,BA=5.64,STAT.h
25/11/2022,12:51:56,TEMP=14.5,BA=5.64,STAT.F,ExtBa=13.27
25/11/2022,13:06:54,TEMP=14.1,BA=5.64,STAT.D=2.0,ExtBa=13.25
25/11/2022,13:21:55,TEMP=13.6,BA=5.52,STAT.D=2.0,ExtBa=13.23
25/11/2022,13:22:45,TEMP=13.6,BA=5.52,STAT.h
25/11/2022,13:36:54,TEMP=12.4,BA=5.64,STAT.D=2.0,ExtBa=13.73
25/11/2022,13:51:56,TEMP=13.3,BA=5.64,STAT.F,ExtBa=13.34
25/11/2022,14:06:54,TEMP=14.1,BA=5.36,STAT.D=2.0,ExtBa=12.82
25/11/2022,14:21:54,TEMP=13.5,BA=5.64,STAT.D=2.0,ExtBa=12.91
25/11/2022,14:36:54,TEMP=14.0,BA=5.60,STAT.D=2.0,ExtBa=12.90
25/11/2022,14:51:56,TEMP=13.7,BA=5.56,STAT.F,ExtBa=12.88
25/11/2022,15:07:03,TEMP=14.0,BA=5.36,STAT.A=2.0,ExtBa=12.66
25/11/2022,15:08:55,TEMP=14.2,BA=5.36,STAT.A=2.0,ExtBa=12.67
25/11/2022,15:11:38,TEMP=14.1,BA=5.36,STAT.A=2.0,ExtBa=12.68
25/11/2022,15:18:23,TEMP=13.5,BA=5.36,STAT.A=2.0,ExtBa=12.72
25/11/2022,15:23:58,TEMP=13.2,BA=5.40,STAT.A=2.0,ExtBa=12.71
25/11/2022,15:28:39,TEMP=13.1,BA=5.40,STAT.A=2.0,ExtBa=12.70